Time;durP1;ratioP1;P1;durP2;ratioP2;P2;SDS_P1;SDS_P2;PMS_P1;PMS_P2;Temp;Humidity;BMP_temperature;BMP_pressure;BME280_temperature;BME280_humidity;BME280_pressure;Samples;Min_cycle;Max_cycle;Signal;HPM_P1;HPM_P2
2023/09/19 04:22:32;;;;;;;3.72;1.73;;;;;;;16.29;100.00;99969.25;5089214;28;20522;-67
2023/09/19 04:24:58;;;;;;;2.58;1.50;;;;;;;16.33;100.00;99971.53;5088160;28;20043;-66
2023/09/19 04:27:23;;;;;;;2.63;1.52;;;;;;;16.36;100.00;99981.81;5088020;28;20044;-67
2023/09/19 04:29:50;;;;;;;4.15;1.90;;;;;;;16.38;100.00;99982.47;5089357;28;20044;-67
2023/09/19 04:32:17;;;;;;;5.32;1.85;;;;;;;16.39;100.00;99987.59;5089132;28;20554;-67
2023/09/19 04:34:43;;;;;;;8.73;2.00;;;;;;;16.42;100.00;99992.53;5089332;28;20075;-67
2023/09/19 04:37:08;;;;;;;4.80;1.60;;;;;;;16.41;100.00;99990.88;5089256;28;20060;-67
2023/09/19 04:39:34;;;;;;;4.10;1.88;;;;;;;16.44;100.00;99998.53;5089138;28;20448;-67
2023/09/19 04:41:59;;;;;;;4.85;1.80;;;;;;;16.45;100.00;99992.13;5089018;28;20598;-67
2023/09/19 04:44:24;;;;;;;8.75;1.70;;;;;;;16.45;100.00;99997.50;5088828;28;20029;-67
2023/09/19 04:46:50;;;;;;;2.85;1.70;;;;;;;16.42;100.00;100008.66;5089050;28;20076;-67
2023/09/19 04:49:16;;;;;;;4.43;1.70;;;;;;;16.41;100.00;100004.34;5070943;28;20044;-67
2023/09/19 04:51:42;;;;;;;4.25;2.00;;;;;;;16.41;100.00;100009.72;5089008;28;20437;-67
2023/09/19 04:54:08;;;;;;;5.50;1.88;;;;;;;16.40;100.00;100001.88;5088617;28;20032;-68
2023/09/19 04:56:33;;;;;;;3.63;1.88;;;;;;;16.40;100.00;100016.13;5088763;28;20059;-67
2023/09/19 04:58:59;;;;;;;5.57;2.30;;;;;;;16.40;100.00;100013.44;5088611;28;20081;-68
2023/09/19 05:01:25;;;;;;;3.47;2.25;;;;;;;16.40;100.00;100013.44;5088674;28;20032;-67
2023/09/19 05:03:53;;;;;;;4.50;1.88;;;;;;;16.38;100.00;100022.78;5088349;28;20036;-67
2023/09/19 05:06:23;;;;;;;3.70;2.03;;;;;;;16.40;100.00;100020.69;5088581;28;20486;-67
2023/09/19 05:08:52;;;;;;;2.78;2.13;;;;;;;16.39;100.00;100025.25;5088577;28;20040;-68
2023/09/19 05:11:24;;;;;;;1.60;1.17;;;;;;;16.37;100.00;100030.03;5088654;28;20071;-67
2023/09/19 05:13:52;;;;;;;4.53;1.70;;;;;;;16.36;100.00;100031.03;5088367;28;20036;-67
2023/09/19 05:16:18;;;;;;;3.88;2.05;;;;;;;16.35;100.00;100042.00;5088415;28;20051;-68
2023/09/19 05:18:44;;;;;;;3.40;1.75;;;;;;;16.36;100.00;100046.34;5088471;28;20044;-67
2023/09/19 05:21:10;;;;;;;3.10;1.85;;;;;;;16.37;100.00;100050.69;5088242;28;20032;-67
2023/09/19 05:23:36;;;;;;;2.40;1.63;;;;;;;16.33;100.00;100046.78;5088061;28;20041;-67
2023/09/19 05:26:03;;;;;;;4.03;2.00;;;;;;;16.31;100.00;100054.25;5088204;28;20564;-67
2023/09/19 05:28:29;;;;;;;5.63;2.70;;;;;;;16.30;100.00;100053.44;5088198;28;20505;-67
2023/09/19 05:30:55;;;;;;;4.05;2.08;;;;;;;16.29;100.00;100062.50;5088095;28;20040;-67
2023/09/19 05:33:20;;;;;;;4.43;2.05;;;;;;;16.25;100.00;100059.44;5077678;28;20043;-67
2023/09/19 05:35:48;;;;;;;6.65;2.65;;;;;;;16.25;100.00;100064.00;5074528;28;20039;-67
2023/09/19 05:38:13;;;;;;;;;;;;;;;16.26;100.00;100065.63;5074954;28;20487;-68
2023/09/19 05:40:42;;;;;;;3.47;1.98;;;;;;;16.26;100.00;100060.25;5074413;28;19922;-67
2023/09/19 05:43:08;;;;;;;2.90;2.00;;;;;;;16.24;100.00;100075.78;5074172;28;20040;-67
2023/09/19 05:45:34;;;;;;;3.22;2.08;;;;;;;16.23;100.00;100074.09;5074399;28;20036;-67
2023/09/19 05:48:15;;;;;;;4.80;1.80;;;;;;;16.26;100.00;100081.75;5074417;28;20040;-67
2023/09/19 05:50:41;;;;;;;3.67;1.80;;;;;;;16.26;100.00;100079.06;5074392;28;20040;-67
2023/09/19 05:53:07;;;;;;;3.92;2.10;;;;;;;16.27;100.00;100081.53;5074179;28;20029;-67
2023/09/19 05:55:33;;;;;;;6.45;2.63;;;;;;;16.31;100.00;100087.31;5074207;28;20048;-67
2023/09/19 05:57:58;;;;;;;5.32;2.00;;;;;;;16.29;100.00;100090.19;5074150;28;20040;-67
2023/09/19 06:00:27;;;;;;;5.82;2.20;;;;;;;16.29;100.00;100086.69;5074106;28;20123;-67
2023/09/19 06:02:57;;;;;;;4.75;2.42;;;;;;;16.26;100.00;100090.63;5073892;28;20040;-67
2023/09/19 06:05:23;;;;;;;4.00;2.38;;;;;;;16.29;100.00;100100.94;5074040;28;20032;-67
2023/09/19 06:07:50;;;;;;;5.55;2.15;;;;;;;16.30;100.00;100104.50;5074110;28;20433;-67
2023/09/19 06:10:17;;;;;;;3.97;1.95;;;;;;;16.31;100.00;100108.81;5074032;28;20116;-67
2023/09/19 06:12:46;;;;;;;2.97;2.00;;;;;;;16.31;100.00;100119.56;5073898;28;20556;-68
2023/09/19 06:15:16;;;;;;;5.30;2.00;;;;;;;16.29;100.00;100113.56;5073906;28;20532;-67
2023/09/19 06:17:46;;;;;;;3.75;1.95;;;;;;;16.29;100.00;100116.25;5074018;28;20048;-67
2023/09/19 06:20:14;;;;;;;5.15;2.17;;;;;;;16.25;100.00;100115.03;5073660;28;20037;-67
2023/09/19 06:22:43;;;;;;;3.47;2.05;;;;;;;16.24;100.00;100108.84;5073525;28;20502;-68
2023/09/19 06:25:15;;;;;;;4.72;2.42;;;;;;;16.23;100.00;100114.41;5073722;28;20052;-67
2023/09/19 06:27:44;;;;;;;3.65;2.10;;;;;;;16.24;100.00;100108.84;5073808;28;20071;-68
2023/09/19 06:30:13;;;;;;;4.07;2.03;;;;;;;16.23;100.00;100115.25;5073717;28;20071;-68
2023/09/19 06:32:39;;;;;;;4.30;1.85;;;;;;;16.26;100.00;100122.06;5073340;28;20048;-67
2023/09/19 06:35:10;;;;;;;5.78;1.83;;;;;;;16.22;100.00;100120.84;5073514;28;20127;-68
2023/09/19 06:37:35;;;;;;;5.38;1.77;;;;;;;16.24;100.00;100118.78;5073533;28;20039;-68
2023/09/19 06:40:01;;;;;;;5.82;2.33;;;;;;;16.24;100.00;100118.78;5073446;28;20040;-68
2023/09/19 06:42:28;;;;;;;4.15;1.80;;;;;;;16.23;100.00;100122.47;5073064;28;20170;-68
2023/09/19 06:44:53;;;;;;;4.03;1.60;;;;;;;16.22;100.00;100128.91;5072419;28;20079;-68
2023/09/19 06:47:19;;;;;;;4.63;1.90;;;;;;;16.21;100.00;100129.94;5073237;28;20075;-68
2023/09/19 06:49:44;;;;;;;6.05;1.90;;;;;;;16.26;100.00;100132.81;5073236;28;20047;-68
2023/09/19 06:52:10;;;;;;;4.00;2.05;;;;;;;16.23;100.00;100127.84;5073009;28;20036;-68
2023/09/19 06:54:35;;;;;;;4.57;2.00;;;;;;;16.29;100.00;100140.44;5072921;28;20046;-68
2023/09/19 06:57:01;;;;;;;4.35;1.73;;;;;;;16.28;100.00;100139.63;5073140;28;20089;-68
2023/09/19 06:59:26;;;;;;;3.20;1.63;;;;;;;16.31;100.00;100141.06;5072018;28;20093;-68
2023/09/19 07:01:52;;;;;;;5.13;1.85;;;;;;;16.36;100.00;100143.09;5072885;28;20041;-68
2023/09/19 07:04:19;;;;;;;6.80;1.95;;;;;;;16.35;100.00;100147.66;5072555;28;20045;-67
2023/09/19 07:06:49;;;;;;;4.27;1.90;;;;;;;16.37;100.00;100150.97;5072849;28;20041;-68
2023/09/19 07:09:15;;;;;;;4.13;1.88;;;;;;;16.36;100.00;100156.53;5071680;28;20032;-68
2023/09/19 07:11:40;;;;;;;5.45;2.25;;;;;;;16.39;100.00;100148.88;5072824;28;20570;-58
2023/09/19 07:14:06;;;;;;;6.78;2.10;;;;;;;16.49;100.00;100154.63;5072424;28;20105;-60
2023/09/19 07:16:31;;;;;;;6.22;1.92;;;;;;;16.49;100.00;100145.72;5072617;28;20062;-59
2023/09/19 07:18:57;;;;;;;4.35;1.85;;;;;;;16.57;100.00;100145.50;5072693;28;20043;-58
2023/09/19 07:21:23;;;;;;;4.95;1.80;;;;;;;16.63;100.00;100155.41;5072366;28;20131;-61
2023/09/19 07:23:49;;;;;;;3.92;2.38;;;;;;;16.70;100.00;100150.84;5072401;28;20025;-58
2023/09/19 07:26:15;;;;;;;4.60;2.05;;;;;;;16.78;100.00;100160.53;5072503;28;20044;-58
2023/09/19 07:28:41;;;;;;;6.38;2.00;;;;;;;16.89;100.00;100159.84;5072561;28;20381;-60
2023/09/19 07:31:09;;;;;;;5.05;2.00;;;;;;;16.97;100.00;100158.75;5072469;28;20040;-60
2023/09/19 07:33:36;;;;;;;4.07;1.80;;;;;;;17.06;100.00;100162.81;5072190;28;20028;-60
2023/09/19 07:36:01;;;;;;;3.75;2.20;;;;;;;17.15;100.00;100163.38;5072303;28;20115;-59
2023/09/19 07:38:27;;;;;;;6.65;2.53;;;;;;;17.22;100.00;100170.38;5072300;28;20526;-60
2023/09/19 07:40:52;;;;;;;4.40;1.88;;;;;;;17.25;100.00;100164.53;5072192;28;20403;-61
2023/09/19 07:43:18;;;;;;;3.47;1.75;;;;;;;17.35;100.00;100175.66;5071890;28;20037;-59
2023/09/19 07:45:44;;;;;;;3.75;1.52;;;;;;;17.42;100.00;100169.41;5068077;28;20143;-59
2023/09/19 07:48:14;;;;;;;2.17;1.40;;;;;;;17.48;100.00;100166.66;5061893;28;20028;-60
2023/09/19 07:50:43;;;;;;;3.97;1.63;;;;;;;17.51;100.00;100171.59;5060294;28;20037;-59
2023/09/19 07:53:08;;;;;;;2.13;1.52;;;;;;;17.60;100.00;100178.34;5061413;28;20021;-60
2023/09/19 07:55:34;;;;;;;2.08;1.40;;;;;;;17.67;100.00;100177.44;5063537;28;20047;-56
2023/09/19 07:58:00;;;;;;;2.65;1.35;;;;;;;17.71;100.00;100184.06;5062599;28;20111;-58
2023/09/19 08:00:26;;;;;;;3.28;1.40;;;;;;;17.82;100.00;100186.06;5058938;28;20380;-59
2023/09/19 08:02:52;;;;;;;2.20;1.40;;;;;;;17.86;100.00;100195.31;5061277;28;20031;-59
2023/09/19 08:05:18;;;;;;;3.83;1.30;;;;;;;17.87;100.00;100197.00;5062513;28;20048;-59
2023/09/19 08:07:49;;;;;;;5.85;1.40;;;;;;;17.98;100.00;100196.25;5062530;28;20085;-59
2023/09/19 08:10:16;;;;;;;3.95;1.30;;;;;;;18.12;100.00;100192.34;5059789;28;20045;-57
2023/09/19 08:12:49;;;;;;;3.72;1.20;;;;;;;18.17;100.00;100207.88;5062504;28;20123;-59
2023/09/19 08:15:14;;;;;;;4.90;1.30;;;;;;;18.28;100.00;100200.91;5062075;28;20079;-56
2023/09/19 08:17:40;;;;;;;2.47;1.20;;;;;;;18.33;100.00;100211.88;5057863;28;20487;-58
2023/09/19 08:20:06;;;;;;;3.67;1.40;;;;;;;18.41;99.30;100206.97;5063100;28;20376;-60
2023/09/19 08:22:32;;;;;;;3.50;1.80;;;;;;;18.46;99.29;100211.72;5062867;28;20109;-57
2023/09/19 08:24:58;;;;;;;1.88;1.02;;;;;;;18.50;97.76;100210.19;5060411;28;20061;-59
2023/09/19 08:27:26;;;;;;;4.65;1.50;;;;;;;18.63;100.00;100204.63;5062430;28;20036;-58
2023/09/19 08:29:52;;;;;;;3.35;1.33;;;;;;;18.70;96.37;100210.78;5061810;28;20143;-58
2023/09/19 08:32:23;;;;;;;2.92;1.23;;;;;;;18.77;95.13;100207.19;5061269;28;20498;-58
2023/09/19 08:34:49;;;;;;;2.20;1.35;;;;;;;18.82;93.09;100202.75;5061367;28;20151;-58
2023/09/19 08:37:14;;;;;;;1.25;1.00;;;;;;;18.80;94.38;100206.75;5060295;28;20120;-54
2023/09/19 08:39:39;;;;;;;2.58;1.30;;;;;;;18.79;93.71;100211.31;5060018;28;20564;-59
2023/09/19 08:42:05;;;;;;;1.25;0.98;;;;;;;18.85;95.76;100213.13;5060446;28;20116;-55
2023/09/19 08:44:36;;;;;;;2.28;1.08;;;;;;;18.88;94.06;100211.81;5063869;28;20041;-59
2023/09/19 08:47:11;;;;;;;2.17;1.10;;;;;;;19.01;94.94;100210.81;5060979;28;20044;-60
2023/09/19 08:49:57;;;;;;;3.35;1.17;;;;;;;19.11;91.64;100219.19;5061052;28;20121;-56
2023/09/19 08:52:27;;;;;;;3.10;1.13;;;;;;;19.14;92.67;100211.44;5060033;28;20037;-56
2023/09/19 08:55:00;;;;;;;2.67;0.90;;;;;;;19.06;87.24;100213.66;5065753;28;20028;-58
2023/09/19 08:57:29;;;;;;;3.35;1.00;;;;;;;19.06;87.09;100217.19;5060413;28;20068;-59
2023/09/19 08:59:56;;;;;;;1.95;1.00;;;;;;;18.96;82.77;100222.28;5062803;28;20555;-57
2023/09/19 09:02:23;;;;;;;1.45;0.80;;;;;;;19.01;86.03;100219.72;5059940;28;20546;-59
2023/09/19 09:04:50;;;;;;;1.48;0.85;;;;;;;19.08;83.37;100209.66;5061180;28;20021;-53
2023/09/19 09:07:17;;;;;;;3.83;1.00;;;;;;;19.24;80.52;100213.59;5058524;28;20060;-58
2023/09/19 09:09:43;;;;;;;2.55;0.90;;;;;;;19.40;80.83;100223.72;5064050;28;20517;-62
2023/09/19 09:12:14;;;;;;;6.77;1.07;;;;;;;19.48;79.29;100217.97;5065612;28;20047;-60
2023/09/19 09:14:41;;;;;;;2.47;0.73;;;;;;;19.62;76.96;100213.22;5065031;28;20029;-59
2023/09/19 09:17:07;;;;;;;2.08;0.80;;;;;;;19.82;81.17;100217.47;5063466;28;20055;-59
2023/09/19 09:19:32;;;;;;;1.15;0.80;;;;;;;19.85;73.45;100217.81;5065210;28;20063;-61
2023/09/19 09:22:11;;;;;;;2.72;0.82;;;;;;;19.96;71.97;100210.78;5064560;28;20476;-62
2023/09/19 09:24:39;;;;;;;1.05;0.55;;;;;;;19.96;73.00;100213.50;5064097;28;20033;-62
2023/09/19 09:27:08;;;;;;;2.30;0.80;;;;;;;19.97;69.34;100204.31;5063446;28;20123;-61
2023/09/19 09:29:48;;;;;;;1.38;0.63;;;;;;;20.18;69.99;100214.53;5063902;28;20499;-58
2023/09/19 09:32:18;;;;;;;2.58;1.00;;;;;;;20.30;66.76;100223.44;5063488;28;20025;-63
2023/09/19 09:34:44;;;;;;;1.42;0.85;;;;;;;20.50;67.82;100214.16;5063538;28;20101;-62
2023/09/19 09:37:15;;;;;;;1.88;0.85;;;;;;;20.69;66.39;100218.31;5065169;28;20039;-62
2023/09/19 09:39:51;;;;;;;2.15;1.23;;;;;;;20.66;62.59;100218.78;5064707;28;20033;-63
2023/09/19 09:42:38;;;;;;;2.63;0.80;;;;;;;20.57;63.34;100210.25;5062709;28;20039;-63
2023/09/19 09:47:58;;;;;;;3.05;1.05;;;;;;;20.88;63.08;100210.03;5064198;28;20104;-62
2023/09/19 09:50:29;;;;;;;3.20;1.00;;;;;;;21.18;62.41;100210.56;5063145;28;20127;-64
2023/09/19 09:53:06;;;;;;;3.25;1.30;;;;;;;21.44;60.90;100205.63;5062658;28;20068;-63
2023/09/19 09:55:57;;;;;;;3.25;1.00;;;;;;;21.94;60.24;100216.47;5073367;28;20422;-62
2023/09/19 09:58:28;;;;;;;2.65;1.02;;;;;;;22.27;56.22;100209.34;5074348;28;20041;-62
2023/09/19 10:00:58;;;;;;;0.70;0.60;;;;;;;22.50;54.33;100211.84;5074317;28;20056;-62
2023/09/19 10:03:43;;;;;;;6.05;0.90;;;;;;;22.68;54.05;100216.09;5073955;28;20036;-61
2023/09/19 10:06:47;;;;;;;1.88;0.90;;;;;;;23.31;52.00;100214.63;5072938;28;20060;-61
2023/09/19 10:09:11;;;;;;;1.77;0.90;;;;;;;23.82;52.50;100215.06;5071190;28;20045;-62
2023/09/19 10:11:42;;;;;;;2.58;0.90;;;;;;;24.15;48.56;100210.38;5074062;28;20045;-64
2023/09/19 10:14:10;;;;;;;2.53;1.02;;;;;;;24.25;48.86;100216.69;5074072;28;20032;-64
2023/09/19 10:16:39;;;;;;;;;;;;;;;24.36;47.93;100204.00;5074332;28;20094;-63
2023/09/19 10:19:08;;;;;;;3.35;0.75;;;;;;;24.66;47.47;100214.19;5073928;28;19923;-62
2023/09/19 10:21:36;;;;;;;2.42;0.90;;;;;;;24.74;45.64;100201.97;5073957;28;20106;-63
2023/09/19 10:24:07;;;;;;;;;;;;;;;24.85;46.04;100217.25;5074229;28;20036;-63
2023/09/19 10:26:35;;;;;;;2.65;0.70;;;;;;;25.16;45.21;100208.06;5074108;28;19912;-62
2023/09/19 10:29:03;;;;;;;1.40;0.85;;;;;;;25.32;45.08;100203.47;5073725;28;20038;-63
2023/09/19 10:31:33;;;;;;;1.77;1.05;;;;;;;25.59;44.60;100203.19;5073711;28;20059;-62
2023/09/19 10:34:02;;;;;;;3.45;1.02;;;;;;;25.46;47.31;100192.03;5073584;28;20396;-64
2023/09/19 10:36:34;;;;;;;1.10;0.60;;;;;;;25.05;46.40;100206.44;5073637;28;20434;-63
2023/09/19 10:39:04;;;;;;;1.42;0.80;;;;;;;25.26;47.19;100196.38;5073756;28;20032;-63
2023/09/19 10:41:34;;;;;;;1.67;0.90;;;;;;;24.83;47.65;100198.44;5073723;28;20032;-64
2023/09/19 10:44:04;;;;;;;1.92;1.00;;;;;;;24.01;47.63;100210.03;5073440;28;20452;-63
2023/09/19 10:46:32;;;;;;;2.90;0.70;;;;;;;23.47;48.10;100205.53;5065775;28;20399;-64
2023/09/19 10:49:02;;;;;;;3.20;0.90;;;;;;;23.79;47.84;100210.16;5062745;28;20590;-63
2023/09/19 10:51:31;;;;;;;2.17;1.08;;;;;;;23.73;48.25;100212.00;5061792;28;20174;-62
2023/09/19 10:54:15;;;;;;;1.60;0.80;;;;;;;24.36;48.08;100206.72;5062922;28;20037;-62
2023/09/19 10:56:51;;;;;;;2.63;0.93;;;;;;;24.62;45.85;100204.91;5062805;28;20165;-63
2023/09/19 10:59:18;;;;;;;1.50;1.13;;;;;;;24.78;46.92;100203.88;5062346;28;20041;-64
2023/09/19 11:01:51;;;;;;;4.53;1.05;;;;;;;24.79;47.20;100204.72;5062119;28;20016;-63
2023/09/19 11:04:31;;;;;;;2.25;1.00;;;;;;;24.66;47.83;100205.22;5055690;28;20064;-64
2023/09/19 11:07:12;;;;;;;2.28;0.95;;;;;;;25.00;45.98;100200.13;5052918;28;20033;-64
2023/09/19 11:10:01;;;;;;;3.50;1.10;;;;;;;25.07;46.85;100200.72;5052956;28;20545;-64
2023/09/19 11:13:04;;;;;;;1.45;0.70;;;;;;;25.49;44.81;100194.19;5052622;28;20040;-62
2023/09/19 11:15:57;;;;;;;4.45;1.00;;;;;;;26.27;43.03;100191.88;5050557;28;20049;-64
2023/09/19 11:18:40;;;;;;;2.00;0.90;;;;;;;26.70;42.44;100195.03;5020550;28;20049;-64
2023/09/19 11:21:33;;;;;;;1.60;0.77;;;;;;;27.02;42.70;100200.84;5052679;28;20033;-64
2023/09/19 11:24:22;;;;;;;2.17;1.00;;;;;;;26.42;42.33;100189.16;5052452;28;20036;-64
2023/09/19 11:26:48;;;;;;;1.52;0.75;;;;;;;26.28;40.87;100189.97;5052655;28;20048;-65
2023/09/19 11:29:33;;;;;;;1.10;0.83;;;;;;;26.34;41.50;100186.13;5052605;28;20585;-63
2023/09/19 11:32:02;;;;;;;1.35;0.85;;;;;;;26.59;41.46;100183.31;5052021;28;20041;-64
2023/09/19 11:34:36;;;;;;;2.17;0.85;;;;;;;26.12;43.50;100184.56;5052452;28;20032;-65
2023/09/19 11:37:28;;;;;;;1.88;0.90;;;;;;;25.73;42.91;100181.66;5058382;28;20033;-64
2023/09/19 11:40:09;;;;;;;7.70;2.58;;;;;;;25.08;45.67;100175.91;5052612;28;20045;-64
2023/09/19 11:42:53;;;;;;;1.23;0.80;;;;;;;25.53;44.59;100168.00;5072298;28;20037;-64
2023/09/19 11:45:49;;;;;;;2.35;0.85;;;;;;;25.85;43.34;100168.53;5072276;28;20434;-64
2023/09/19 11:48:25;;;;;;;1.90;0.98;;;;;;;25.58;41.92;100160.66;5072335;28;20032;-64
2023/09/19 11:50:52;;;;;;;1.17;0.80;;;;;;;25.59;43.70;100158.75;5072328;28;20057;-64
2023/09/19 11:53:19;;;;;;;;;;;;;;;25.67;43.69;100155.44;5072418;28;20044;-64
2023/09/19 11:55:45;;;;;;;2.53;1.27;;;;;;;25.92;42.91;100154.63;5072089;28;19912;-65
2023/09/19 11:58:14;;;;;;;2.38;1.02;;;;;;;25.88;41.81;100153.53;5072514;28;20043;-64
2023/09/19 12:00:43;;;;;;;1.10;0.77;;;;;;;25.43;42.98;100153.31;5072298;28;20048;-63
2023/09/19 12:03:11;;;;;;;2.10;0.80;;;;;;;25.79;42.94;100153.28;5071760;28;20123;-64
2023/09/19 12:05:37;;;;;;;1.70;0.80;;;;;;;25.58;42.54;100154.38;5072074;28;20032;-63
2023/09/19 12:08:10;;;;;;;1.63;0.90;;;;;;;25.08;44.10;100151.38;5072125;28;20075;-64
2023/09/19 12:11:01;;;;;;;1.38;0.80;;;;;;;25.02;43.90;100144.25;5072087;28;20415;-64
2023/09/19 12:13:29;;;;;;;1.70;0.98;;;;;;;25.46;44.54;100137.50;5069522;28;20051;-64
2023/09/19 12:15:55;;;;;;;1.50;0.70;;;;;;;25.06;43.88;100144.56;5071849;28;20052;-63
2023/09/19 12:18:30;;;;;;;3.85;1.02;;;;;;;25.76;43.33;100142.94;5071914;28;20064;-63
2023/09/19 12:20:57;;;;;;;2.40;1.10;;;;;;;26.61;42.64;100131.97;5071635;28;20029;-64
2023/09/19 12:23:22;;;;;;;;;;;;;;;27.60;40.07;100142.72;5071973;28;20017;-64
2023/09/19 12:25:48;;;;;;;1.07;0.70;;;;;;;28.16;39.80;100128.44;5071764;28;19916;-64
2023/09/19 12:28:22;;;;;;;1.55;0.90;;;;;;;28.35;39.38;100126.56;5071787;28;20044;-64
2023/09/19 12:30:47;;;;;;;1.38;0.90;;;;;;;27.65;39.34;100139.94;5071758;28;20037;-64
2023/09/19 12:33:19;;;;;;;3.13;0.95;;;;;;;27.81;38.85;100127.75;5071384;28;20557;-64
2023/09/19 12:35:44;;;;;;;1.75;0.75;;;;;;;28.09;36.48;100127.97;5071652;28;20037;-64
2023/09/19 12:38:12;;;;;;;2.55;0.90;;;;;;;28.43;36.63;100118.78;5071829;28;20392;-64
2023/09/19 12:40:42;;;;;;;2.13;0.98;;;;;;;28.28;37.35;100117.06;5071945;28;20510;-64
2023/09/19 12:43:09;;;;;;;1.63;0.90;;;;;;;28.49;37.88;100109.41;5073609;28;20043;-65
2023/09/19 12:45:37;;;;;;;1.20;0.70;;;;;;;28.24;37.25;100114.09;5075667;28;20514;-64
2023/09/19 12:48:21;;;;;;;3.05;1.27;;;;;;;28.95;36.32;100109.56;5075675;28;20120;-64
2023/09/19 12:51:16;;;;;;;3.38;0.90;;;;;;;29.12;36.08;100106.28;5075456;28;20035;-65
2023/09/19 12:53:44;;;;;;;2.63;0.90;;;;;;;29.05;37.25;100105.84;5075588;28;20364;-65
2023/09/19 12:56:15;;;;;;;1.88;0.73;;;;;;;29.69;35.11;100109.69;5075569;28;20035;-65
2023/09/19 12:58:55;;;;;;;1.92;0.90;;;;;;;29.63;34.65;100105.41;5075334;28;20127;-66
2023/09/19 13:01:27;;;;;;;3.47;0.80;;;;;;;30.07;34.77;100093.03;5075272;28;20086;-65
2023/09/19 13:04:12;;;;;;;2.00;0.65;;;;;;;30.05;33.82;100104.28;5074990;28;20403;-65
2023/09/19 13:06:40;;;;;;;1.67;1.10;;;;;;;30.04;34.01;100099.09;5072624;28;20043;-65
2023/09/19 13:09:10;;;;;;;1.13;0.55;;;;;;;29.65;33.72;100093.00;5065774;28;20040;-64
2023/09/19 13:11:40;;;;;;;0.90;0.70;;;;;;;29.27;33.94;100089.56;5055917;28;20108;-65
2023/09/19 13:14:18;;;;;;;1.77;0.73;;;;;;;29.44;34.20;100091.72;5057430;28;20029;-64
2023/09/19 13:16:55;;;;;;;1.67;0.88;;;;;;;29.95;34.26;100086.09;5054844;28;20487;-65
2023/09/19 13:19:52;;;;;;;2.00;0.90;;;;;;;30.20;33.79;100083.97;5055000;28;20059;-65
2023/09/19 13:22:42;;;;;;;1.98;0.93;;;;;;;29.92;33.80;100100.44;5064712;28;20586;-65
2023/09/19 13:25:17;;;;;;;1.60;1.10;;;;;;;29.46;33.65;100086.75;5068457;28;20053;-64
2023/09/19 13:27:44;;;;;;;2.13;0.90;;;;;;;29.34;33.46;100076.28;5074624;28;20037;-66
2023/09/19 13:30:11;;;;;;;1.70;0.80;;;;;;;29.11;34.85;100088.22;5074819;28;20111;-65
2023/09/19 13:32:37;;;;;;;1.35;0.70;;;;;;;29.33;33.93;100082.88;5074394;28;20459;-66
2023/09/19 13:35:05;;;;;;;0.75;0.68;;;;;;;28.92;34.07;100072.59;5074026;28;20037;-66
2023/09/19 13:37:31;;;;;;;2.25;0.88;;;;;;;29.33;34.76;100080.13;5065829;28;20501;-65
2023/09/19 13:39:57;;;;;;;1.55;0.70;;;;;;;28.74;34.64;100078.91;5063869;28;20107;-65
2023/09/19 13:42:25;;;;;;;2.73;0.90;;;;;;;28.95;34.55;100073.13;5065608;28;20041;-65
2023/09/19 13:44:51;;;;;;;1.80;0.80;;;;;;;29.27;34.26;100070.34;5062902;28;20367;-66
2023/09/19 13:47:16;;;;;;;3.17;0.90;;;;;;;29.09;34.17;100072.06;5064299;28;20033;-66
2023/09/19 13:49:42;;;;;;;1.98;0.80;;;;;;;28.66;35.09;100071.34;5064418;28;20040;-66
2023/09/19 13:52:09;;;;;;;1.67;0.77;;;;;;;28.70;34.43;100050.47;5065514;28;20033;-66
2023/09/19 13:54:34;;;;;;;1.58;0.90;;;;;;;28.51;35.37;100057.91;5064894;28;20044;-65
2023/09/19 13:57:00;;;;;;;1.42;0.63;;;;;;;28.46;34.89;100056.03;5062766;28;20447;-65
2023/09/19 13:59:28;;;;;;;2.40;0.87;;;;;;;28.18;35.73;100048.75;5062844;28;20138;-65
2023/09/19 14:01:53;;;;;;;2.65;0.95;;;;;;;27.89;37.67;100059.78;5065661;28;20396;-65
2023/09/19 14:04:20;;;;;;;2.72;0.70;;;;;;;27.11;38.08;100064.41;5065449;28;20082;-65
2023/09/19 14:06:46;;;;;;;1.98;0.90;;;;;;;26.15;39.01;100060.41;5062545;28;20032;-65
2023/09/19 14:09:13;;;;;;;2.05;0.60;;;;;;;26.11;39.48;100053.84;5064219;28;20608;-66
2023/09/19 14:11:39;;;;;;;1.27;0.73;;;;;;;25.74;39.99;100055.09;5064389;28;20060;-66
2023/09/19 14:14:04;;;;;;;1.73;0.70;;;;;;;25.26;40.65;100051.91;5063946;28;20513;-64
2023/09/19 14:16:30;;;;;;;1.38;0.70;;;;;;;25.06;41.72;100050.03;5062346;28;20036;-63
2023/09/19 14:18:57;;;;;;;1.77;0.80;;;;;;;24.78;42.97;100048.66;5064139;28;20037;-66
2023/09/19 14:21:23;;;;;;;1.05;0.80;;;;;;;24.89;42.16;100052.97;5064387;28;20028;-65
2023/09/19 14:23:49;;;;;;;1.77;1.10;;;;;;;24.67;42.47;100060.63;5064040;28;20032;-66
2023/09/19 14:26:16;;;;;;;1.58;0.80;;;;;;;24.80;42.11;100049.19;5062486;28;20079;-64
2023/09/19 14:28:41;;;;;;;1.63;0.70;;;;;;;24.55;42.08;100062.78;5062998;28;20047;-66
2023/09/19 14:31:08;;;;;;;2.13;0.90;;;;;;;24.48;41.61;100057.59;5064171;28;20048;-66
2023/09/19 14:33:34;;;;;;;2.90;0.98;;;;;;;24.31;42.56;100051.53;5062111;28;20462;-66
2023/09/19 14:36:06;;;;;;;0.98;0.70;;;;;;;24.26;42.42;100049.63;5062096;28;20041;-66
2023/09/19 14:38:33;;;;;;;1.45;0.90;;;;;;;24.27;42.37;100047.72;5070777;28;20040;-66
2023/09/19 14:41:02;;;;;;;;;;;;;;;24.14;42.56;100037.34;5073773;28;20052;-63
2023/09/19 14:43:29;;;;;;;1.30;0.73;;;;;;;24.21;43.47;100037.91;5073078;28;19920;-63
2023/09/19 14:45:56;;;;;;;;;;;;;;;23.98;42.86;100037.28;5073412;28;20071;-66
2023/09/19 14:48:25;;;;;;;;;;;;;;;23.89;44.08;100035.34;5073637;28;19923;-64
2023/09/19 14:50:51;;;;;;;1.02;0.80;;;;;;;23.75;44.38;100033.13;5072991;28;19977;-64
2023/09/19 14:53:16;;;;;;;1.20;0.70;;;;;;;23.61;44.49;100033.84;5072868;28;20032;-64
2023/09/19 14:55:44;;;;;;;1.85;0.85;;;;;;;23.56;44.90;100030.00;5072773;28;20044;-63
2023/09/19 14:58:11;;;;;;;3.58;0.90;;;;;;;23.43;45.29;100030.47;5072909;28;20407;-64
2023/09/19 15:00:36;;;;;;;1.08;0.88;;;;;;;23.56;44.71;100030.00;5072922;28;20089;-64
2023/09/19 15:03:01;;;;;;;1.05;0.70;;;;;;;23.47;44.79;100022.59;5072577;28;20033;-65
2023/09/19 15:05:29;;;;;;;1.48;0.88;;;;;;;23.36;45.49;100027.16;5071895;28;20047;-62
2023/09/19 15:07:56;;;;;;;1.60;0.70;;;;;;;23.36;45.17;100027.16;5072738;28;20032;-64
2023/09/19 15:10:22;;;;;;;1.20;0.50;;;;;;;23.20;46.14;100026.25;5072752;28;20074;-65
2023/09/19 15:12:48;;;;;;;5.28;0.80;;;;;;;23.23;44.93;100030.34;5072397;28;20539;-66
2023/09/19 15:15:13;;;;;;;8.65;1.15;;;;;;;23.04;45.72;100024.50;5072570;28;20131;-64
2023/09/19 15:17:39;;;;;;;1.20;0.70;;;;;;;23.09;45.79;100029.16;5072640;28;20150;-63
2023/09/19 15:20:06;;;;;;;1.63;0.90;;;;;;;23.04;46.32;100029.13;5072407;28;20399;-63
2023/09/19 15:22:34;;;;;;;0.90;0.60;;;;;;;23.10;46.19;100026.19;5072281;28;20052;-65
2023/09/19 15:25:00;;;;;;;1.88;0.90;;;;;;;23.23;46.44;100022.19;5072477;28;20043;-65
2023/09/19 15:27:26;;;;;;;1.13;0.70;;;;;;;23.31;46.73;100018.16;5072389;28;20028;-64
2023/09/19 15:29:51;;;;;;;1.80;1.02;;;;;;;23.27;47.27;100020.56;5072430;28;20047;-63
2023/09/19 15:32:17;;;;;;;3.10;0.93;;;;;;;23.27;46.58;100013.25;5072017;28;20064;-64
2023/09/19 15:34:42;;;;;;;0.65;0.60;;;;;;;23.31;46.45;100010.00;5072403;28;20036;-61
2023/09/19 15:37:07;;;;;;;1.05;0.63;;;;;;;23.25;46.72;100011.88;5072224;28;20032;-63
2023/09/19 15:39:33;;;;;;;1.08;0.80;;;;;;;23.26;46.66;100003.47;5072261;28;20036;-64
2023/09/19 15:41:59;;;;;;;1.95;0.90;;;;;;;23.24;46.86;100002.09;5072163;28;20445;-64
2023/09/19 15:44:26;;;;;;;1.25;0.65;;;;;;;23.11;48.22;100002.56;5071981;28;20036;-65
2023/09/19 15:46:52;;;;;;;1.73;0.80;;;;;;;23.13;47.62;100003.09;5072104;28;20040;-66
2023/09/19 15:49:18;;;;;;;1.50;0.82;;;;;;;23.02;47.92;100005.75;5072124;28;20040;-64
2023/09/19 15:51:43;;;;;;;3.28;0.93;;;;;;;22.98;48.27;100004.63;5072021;28;20068;-65
2023/09/19 15:54:13;;;;;;;0.90;0.60;;;;;;;22.88;47.99;100001.84;5071859;28;20032;-65
2023/09/19 15:56:41;;;;;;;1.30;1.00;;;;;;;22.89;48.77;100002.69;5071998;28;20478;-65
2023/09/19 15:59:07;;;;;;;1.63;1.00;;;;;;;22.81;50.01;100000.38;5072043;28;20154;-66